Time;durP1;ratioP1;P1;durP2;ratioP2;P2;SDS_P1;SDS_P2;PMS_P1;PMS_P2;Temp;Humidity;BMP_temperature;BMP_pressure;BME280_temperature;BME280_humidity;BME280_pressure;Samples;Min_cycle;Max_cycle;Signal;HPM_P1;HPM_P2
2022/01/16 00:04:38;;;;;;;44.30;21.27;;;1.90;99.90;;;;;;5052963;28;20148;-72
2022/01/16 00:07:05;;;;;;;42.75;19.15;;;1.80;99.90;;;;;;5071108;28;20131;-72
2022/01/16 00:09:31;;;;;;;40.67;18.58;;;1.90;99.90;;;;;;5056171;28;20389;-79
2022/01/16 00:12:00;;;;;;;46.47;20.85;;;1.80;99.90;;;;;;5051880;28;20076;-80
2022/01/16 00:14:26;;;;;;;41.72;19.38;;;1.90;99.90;;;;;;5073808;28;20044;-79
2022/01/16 00:16:52;;;;;;;42.92;20.55;;;1.80;99.90;;;;;;5036563;28;20040;-80
2022/01/16 00:19:17;;;;;;;47.38;22.80;;;1.80;99.90;;;;;;5054295;28;20507;-78
2022/01/16 00:21:43;;;;;;;42.90;20.60;;;2.00;99.90;;;;;;5053808;28;20102;-81
2022/01/16 00:24:10;;;;;;;41.15;20.38;;;1.80;99.90;;;;;;5070579;28;20075;-80
2022/01/16 00:26:36;;;;;;;44.60;20.02;;;1.70;99.90;;;;;;5054594;28;20045;-80
2022/01/16 00:29:07;;;;;;;39.15;19.05;;;1.70;99.90;;;;;;5068979;28;20146;-80
2022/01/16 00:31:34;;;;;;;38.95;19.08;;;1.70;99.90;;;;;;5057337;28;20106;-80
2022/01/16 00:33:59;;;;;;;43.63;21.15;;;1.60;99.90;;;;;;5069006;28;20041;-80
2022/01/16 00:36:25;;;;;;;42.92;20.65;;;1.50;99.90;;;;;;5057462;28;20055;-81
2022/01/16 00:38:53;;;;;;;42.93;21.00;;;1.70;99.90;;;;;;5058223;28;20097;-81
2022/01/16 00:41:21;;;;;;;44.83;21.55;;;1.60;99.90;;;;;;5075182;28;20306;-81
2022/01/16 00:43:48;;;;;;;41.05;20.00;;;1.70;99.90;;;;;;5073439;28;20052;-81
2022/01/16 00:46:14;;;;;;;44.58;21.83;;;1.60;99.90;;;;;;5055140;28;20491;-79
2022/01/16 00:48:40;;;;;;;44.00;22.02;;;1.60;99.90;;;;;;5074066;28;20087;-80
2022/01/16 00:51:06;;;;;;;44.00;21.52;;;1.70;99.90;;;;;;5056579;28;20048;-80
2022/01/16 00:53:31;;;;;;;43.40;22.17;;;1.60;99.90;;;;;;5060579;28;20062;-78
2022/01/16 00:55:57;;;;;;;48.05;22.10;;;1.70;99.90;;;;;;5049486;28;20041;-79
2022/01/16 00:58:23;;;;;;;45.83;21.92;;;1.60;99.90;;;;;;5043837;28;20045;-79
2022/01/16 01:00:49;;;;;;;41.45;19.55;;;1.60;99.90;;;;;;5037987;28;20061;-79
2022/01/16 01:03:15;;;;;;;52.97;25.40;;;1.60;99.90;;;;;;5055476;28;20136;-79
2022/01/16 01:05:42;;;;;;;53.70;25.13;;;1.50;99.90;;;;;;5073767;28;20040;-79
2022/01/16 01:08:08;;;;;;;47.10;22.20;;;1.70;99.90;;;;;;5068415;28;20441;-79
2022/01/16 01:10:37;;;;;;;58.38;25.15;;;1.50;99.90;;;;;;5052833;28;20045;-81
2022/01/16 01:13:22;;;;;;;58.22;26.23;;;1.70;99.90;;;;;;5073938;28;20348;-80
2022/01/16 01:15:51;;;;;;;58.53;25.88;;;1.60;99.90;;;;;;5068161;28;20036;-80
2022/01/16 01:18:20;;;;;;;58.03;26.33;;;1.60;99.90;;;;;;5050556;28;20082;-79
2022/01/16 01:20:48;;;;;;;61.28;26.95;;;1.60;99.90;;;;;;5074070;28;20456;-81
2022/01/16 01:23:14;;;;;;;60.33;27.63;;;1.70;99.90;;;;;;5072604;28;20044;-79
2022/01/16 01:25:42;;;;;;;60.08;27.30;;;1.80;99.90;;;;;;5090790;28;20109;-79
2022/01/16 01:28:08;;;;;;;61.45;25.55;;;1.60;99.90;;;;;;5056815;28;20045;-79
2022/01/16 01:30:35;;;;;;;54.58;24.25;;;1.80;99.90;;;;;;5041733;28;20056;-79
2022/01/16 01:33:01;;;;;;;59.50;27.02;;;1.70;99.90;;;;;;5074014;28;20405;-79
2022/01/16 01:35:28;;;;;;;50.70;25.13;;;1.70;99.90;;;;;;5104857;28;20049;-79
2022/01/16 01:37:54;;;;;;;56.95;27.23;;;1.70;99.90;;;;;;5074123;28;20040;-80
2022/01/16 01:40:25;;;;;;;56.80;27.15;;;1.70;99.90;;;;;;5058657;28;20178;-79
2022/01/16 01:51:15;;;;;;;57.53;26.98;;;1.70;99.90;;;;;;5060781;28;20582;-72
2022/01/16 01:53:42;;;;;;;53.78;25.73;;;1.70;99.90;;;;;;5066492;28;20499;-71
2022/01/16 01:56:10;;;;;;;62.45;27.95;;;1.70;99.90;;;;;;5064411;28;20047;-72
2022/01/16 01:58:36;;;;;;;51.92;26.52;;;1.80;99.90;;;;;;5069269;28;20048;-71
2022/01/16 02:01:03;;;;;;;57.33;27.67;;;1.70;99.90;;;;;;5068014;28;20041;-72
2022/01/16 02:03:32;;;;;;;58.55;27.13;;;1.70;99.90;;;;;;5092124;28;20040;-71
2022/01/16 02:05:58;;;;;;;54.38;25.50;;;1.80;99.90;;;;;;5049575;28;20506;-72
2022/01/16 02:08:25;;;;;;;56.20;26.02;;;1.80;99.90;;;;;;5052590;28;20048;-73
2022/01/16 02:10:50;;;;;;;58.28;27.15;;;1.80;99.90;;;;;;5048466;28;20048;-73
2022/01/16 02:13:25;;;;;;;53.78;26.13;;;1.70;99.90;;;;;;5069997;28;20037;-73
2022/01/16 02:30:12;;;;;;;56.72;26.10;;;1.90;99.90;;;;;;5067287;28;20133;-73
2022/01/16 02:34:53;;;;;;;63.65;28.13;;;1.70;99.90;;;;;;5064522;28;20178;-73
2022/01/16 02:37:23;;;;;;;68.60;31.20;;;1.80;99.90;;;;;;5050985;28;20119;-72
2022/01/16 02:39:51;;;;;;;61.05;26.15;;;1.70;99.90;;;;;;5068435;28;20318;-72
2022/01/16 02:42:18;;;;;;;61.70;27.58;;;1.80;99.90;;;;;;5068576;28;20066;-79
2022/01/16 02:44:49;;;;;;;55.47;24.98;;;1.70;99.90;;;;;;5066405;28;20056;-79
2022/01/16 02:47:17;;;;;;;67.00;29.52;;;1.70;99.90;;;;;;5071991;28;20431;-79
2022/01/16 02:49:47;;;;;;;61.97;26.55;;;1.80;99.90;;;;;;5056496;28;20047;-79
2022/01/16 02:52:15;;;;;;;60.45;25.80;;;1.60;99.90;;;;;;5054635;28;20036;-80
2022/01/16 02:54:43;;;;;;;60.75;27.35;;;1.60;99.90;;;;;;5062989;28;20231;-79
2022/01/16 02:57:13;;;;;;;65.63;28.08;;;1.80;99.90;;;;;;5064429;28;20492;-80
2022/01/16 02:59:40;;;;;;;64.38;27.23;;;1.70;99.90;;;;;;5071445;28;20158;-79
2022/01/16 03:02:06;;;;;;;60.33;25.80;;;1.80;99.90;;;;;;5068971;28;20476;-79
2022/01/16 03:04:32;;;;;;;60.47;25.10;;;1.80;99.90;;;;;;5035044;28;20086;-79
2022/01/16 03:07:00;;;;;;;61.58;26.13;;;1.60;99.90;;;;;;5062100;28;20044;-79
2022/01/16 03:09:33;;;;;;;62.17;27.02;;;1.70;99.90;;;;;;5052255;28;20048;-79
2022/01/16 03:11:58;;;;;;;59.83;26.15;;;1.80;99.90;;;;;;5087943;28;20100;-79
2022/01/16 03:14:24;;;;;;;63.20;26.00;;;1.80;99.90;;;;;;5052888;28;20444;-79
2022/01/16 03:16:52;;;;;;;63.47;26.27;;;1.80;99.90;;;;;;5084530;28;20282;-79
2022/01/16 03:22:05;;;;;;;62.88;25.35;;;1.80;99.90;;;;;;5071737;28;20503;-79
2022/01/16 03:24:37;;;;;;;61.58;25.20;;;1.80;99.90;;;;;;5059944;28;20060;-79
2022/01/16 03:27:10;;;;;;;63.55;26.40;;;1.80;99.90;;;;;;5072244;28;20041;-79
2022/01/16 03:29:36;;;;;;;60.67;25.52;;;1.80;99.90;;;;;;5065627;28;20055;-79
2022/01/16 03:32:05;;;;;;;60.15;26.02;;;1.90;99.90;;;;;;5072626;28;20041;-80
2022/01/16 03:34:31;;;;;;;67.55;27.08;;;1.90;99.90;;;;;;5064144;28;20106;-79
2022/01/16 03:36:57;;;;;;;63.35;27.83;;;1.90;99.90;;;;;;5075372;28;20509;-79
2022/01/16 03:39:23;;;;;;;61.63;27.35;;;2.00;99.90;;;;;;5058949;28;20036;-79
2022/01/16 03:41:48;;;;;;;62.53;27.45;;;2.00;99.90;;;;;;5076139;28;20044;-79
2022/01/16 03:44:15;;;;;;;61.67;26.77;;;1.90;99.90;;;;;;5076399;28;20063;-78
2022/01/16 03:46:43;;;;;;;70.68;30.27;;;1.90;99.90;;;;;;5076469;28;20139;-79
2022/01/16 03:49:11;;;;;;;65.80;27.55;;;1.90;99.90;;;;;;5060014;28;20072;-78
2022/01/16 03:51:38;;;;;;;64.05;26.83;;;2.00;99.90;;;;;;5076609;28;20067;-78
2022/01/16 03:54:05;;;;;;;69.93;28.90;;;2.00;99.90;;;;;;5068542;28;20028;-79
2022/01/16 03:56:32;;;;;;;68.97;28.48;;;1.90;99.90;;;;;;5075312;28;20055;-79
2022/01/16 03:58:57;;;;;;;72.72;30.58;;;2.10;99.90;;;;;;5068438;28;20219;-79
2022/01/16 04:01:26;;;;;;;70.68;28.83;;;1.90;99.90;;;;;;5049143;28;20210;-79
2022/01/16 04:03:53;;;;;;;70.68;28.45;;;2.10;99.90;;;;;;5049857;28;20082;-79
2022/01/16 04:06:21;;;;;;;70.18;29.15;;;2.00;99.90;;;;;;5073987;28;20044;-79
2022/01/16 04:08:49;;;;;;;68.53;29.30;;;2.10;99.90;;;;;;5066969;28;20025;-79
2022/01/16 04:11:16;;;;;;;81.15;30.75;;;2.20;99.90;;;;;;5065357;28;20041;-77
2022/01/16 04:13:53;;;;;;;;;;;2.10;99.90;;;;;;5058665;28;20075;-79
2022/01/16 04:16:20;;;;;;;77.43;30.23;;;2.10;99.90;;;;;;5073485;28;19924;-78
2022/01/16 04:18:50;;;;;;;70.63;29.60;;;2.20;99.90;;;;;;5075207;28;20115;-78
2022/01/16 04:21:18;;;;;;;76.25;30.15;;;2.10;99.90;;;;;;5038971;28;20037;-78
2022/01/16 04:23:43;;;;;;;79.55;30.15;;;2.30;99.90;;;;;;5063941;28;20040;-72
2022/01/16 04:26:09;;;;;;;72.78;28.33;;;2.30;99.90;;;;;;5051095;28;20044;-71
2022/01/16 04:28:35;;;;;;;70.30;28.17;;;2.20;99.90;;;;;;5066890;28;20033;-72
2022/01/16 04:31:00;;;;;;;70.23;29.03;;;2.20;99.90;;;;;;5064820;28;20292;-72
2022/01/16 04:33:26;;;;;;;78.53;28.80;;;2.30;99.90;;;;;;5055019;28;20299;-72
2022/01/16 04:35:52;;;;;;;77.47;29.35;;;2.40;99.90;;;;;;5068626;28;20082;-71
2022/01/16 04:38:18;;;;;;;58.20;23.38;;;2.30;99.90;;;;;;5035238;28;21466;-72
2022/01/16 04:43:47;;;;;;;87.43;31.55;;;2.30;99.90;;;;;;5051566;28;20159;-72
2022/01/16 04:43:48;;;;;;;74.95;29.27;;;2.30;99.90;;;;;;5065977;28;20091;-72
2022/01/16 04:46:17;;;;;;;76.32;29.40;;;2.40;99.90;;;;;;5069672;28;20789;-72
2022/01/16 04:48:44;;;;;;;71.18;28.52;;;2.30;99.90;;;;;;5053637;28;20049;-72
2022/01/16 04:51:10;;;;;;;70.70;29.08;;;2.40;99.90;;;;;;5068641;28;20051;-72
2022/01/16 04:53:37;;;;;;;81.20;32.20;;;2.50;99.90;;;;;;5070265;28;20040;-72
2022/01/16 04:56:04;;;;;;;81.13;30.38;;;2.60;99.90;;;;;;5051934;28;20090;-72
2022/01/16 04:58:30;;;;;;;72.45;28.23;;;2.50;99.90;;;;;;5045395;28;20047;-72
2022/01/16 05:00:56;;;;;;;72.47;27.90;;;2.60;99.90;;;;;;5063746;28;20115;-72
2022/01/16 05:03:24;;;;;;;82.72;31.55;;;2.50;99.90;;;;;;5045492;28;20119;-72
2022/01/16 05:05:50;;;;;;;80.50;30.48;;;2.60;99.90;;;;;;5066349;28;20051;-71
2022/01/16 05:08:16;;;;;;;86.75;30.67;;;2.70;99.90;;;;;;5045418;28;20044;-72
2022/01/16 05:10:42;;;;;;;72.47;29.55;;;2.70;99.90;;;;;;5065032;28;20040;-72
2022/01/16 05:18:34;;;;;;;88.65;31.65;;;2.70;99.90;;;;;;5063123;28;20047;-72
2022/01/16 05:21:00;;;;;;;88.10;32.13;;;2.60;99.90;;;;;;5068232;28;20036;-72
2022/01/16 05:23:28;;;;;;;85.80;30.58;;;2.70;99.90;;;;;;5063310;28;20150;-72
2022/01/16 05:25:54;;;;;;;89.10;32.60;;;2.60;99.90;;;;;;5067311;28;20078;-72
2022/01/16 05:28:20;;;;;;;88.65;33.40;;;2.70;99.90;;;;;;5064515;28;20055;-72
2022/01/16 05:30:46;;;;;;;88.63;33.05;;;2.70;99.90;;;;;;5098562;28;20036;-72
2022/01/16 05:33:12;;;;;;;84.75;32.55;;;2.80;99.90;;;;;;5068462;28;20495;-72
2022/01/16 05:35:38;;;;;;;88.43;32.50;;;2.90;99.90;;;;;;5049689;28;20028;-72
2022/01/16 05:38:04;;;;;;;89.28;32.88;;;2.80;99.90;;;;;;5060658;28;20102;-72
2022/01/16 05:40:30;;;;;;;83.38;31.45;;;2.80;99.90;;;;;;5048397;28;20040;-72
2022/01/16 05:42:56;;;;;;;87.40;33.08;;;2.90;99.90;;;;;;5069195;28;20036;-73
2022/01/16 05:45:22;;;;;;;86.72;31.83;;;3.00;99.90;;;;;;5069602;28;20102;-72
2022/01/16 05:47:48;;;;;;;79.75;30.42;;;2.80;99.90;;;;;;5069652;28;20105;-72
2022/01/16 05:50:14;;;;;;;77.88;29.05;;;3.00;99.90;;;;;;5070053;28;20048;-72
2022/01/16 05:52:40;;;;;;;78.30;30.42;;;2.80;99.90;;;;;;5067256;28;20155;-72
2022/01/16 05:55:06;;;;;;;84.72;31.67;;;2.90;99.90;;;;;;5069823;28;20131;-72
2022/01/16 05:57:32;;;;;;;94.63;32.88;;;3.00;99.90;;;;;;5067769;28;20078;-72
2022/01/16 05:59:58;;;;;;;90.88;33.63;;;2.90;99.90;;;;;;5069111;28;20147;-73
2022/01/16 06:02:27;;;;;;;85.32;31.63;;;2.90;99.90;;;;;;5069600;28;20441;-73
2022/01/16 06:04:53;;;;;;;74.38;28.60;;;3.00;99.90;;;;;;5053735;28;20407;-73
2022/01/16 06:07:19;;;;;;;88.57;32.97;;;2.90;99.90;;;;;;5049430;28;20067;-72
2022/01/16 06:09:45;;;;;;;87.00;33.97;;;3.00;99.90;;;;;;5070947;28;20044;-72
2022/01/16 06:12:11;;;;;;;82.43;31.77;;;3.00;99.90;;;;;;5065897;28;20432;-73
2022/01/16 06:14:36;;;;;;;80.03;30.77;;;2.90;99.90;;;;;;5053790;28;20106;-72
2022/01/16 06:17:02;;;;;;;90.95;30.80;;;2.90;99.90;;;;;;5069665;28;20174;-72
2022/01/16 06:19:28;;;;;;;81.70;31.35;;;3.00;99.90;;;;;;5069829;28;20063;-73
2022/01/16 06:21:54;;;;;;;80.88;31.33;;;3.00;99.90;;;;;;5049483;28;20467;-72
2022/01/16 06:24:19;;;;;;;90.13;33.10;;;3.10;99.90;;;;;;5054178;28;20044;-79
2022/01/16 06:26:45;;;;;;;92.18;33.90;;;3.10;99.90;;;;;;5072225;28;20222;-79
2022/01/16 06:29:11;;;;;;;85.10;32.47;;;3.10;99.90;;;;;;5065318;28;20080;-79
2022/01/16 06:31:37;;;;;;;80.95;31.20;;;3.20;99.90;;;;;;5060730;28;20287;-79
2022/01/16 06:34:05;;;;;;;82.10;32.60;;;3.30;99.90;;;;;;5072822;28;20484;-79
2022/01/16 06:36:32;;;;;;;89.55;34.28;;;3.20;99.90;;;;;;5033670;28;20040;-76
2022/01/16 06:38:58;;;;;;;86.05;34.40;;;3.20;99.90;;;;;;5061515;28;20139;-76
2022/01/16 06:41:23;;;;;;;85.25;34.10;;;3.40;99.90;;;;;;5047824;28;20127;-76
2022/01/16 06:43:49;;;;;;;74.68;27.08;;;3.40;99.90;;;;;;5051078;28;20053;-77
2022/01/16 06:46:15;;;;;;;77.80;32.55;;;3.50;99.90;;;;;;5051771;28;20044;-77
2022/01/16 06:48:41;;;;;;;82.18;32.42;;;3.40;99.90;;;;;;5053359;28;20459;-75
2022/01/16 06:51:07;;;;;;;73.32;30.05;;;3.60;99.90;;;;;;5034602;28;20040;-75
2022/01/16 06:53:34;;;;;;;81.88;33.90;;;3.60;99.90;;;;;;5049845;28;20485;-77
2022/01/16 06:56:00;;;;;;;79.35;33.03;;;3.60;99.90;;;;;;5067453;28;20037;-73
2022/01/16 06:58:26;;;;;;;86.72;36.53;;;3.70;99.90;;;;;;5061708;28;20035;-73
2022/01/16 07:00:51;;;;;;;75.45;33.50;;;3.60;99.90;;;;;;5067825;28;20569;-73
2022/01/16 07:03:17;;;;;;;88.90;35.53;;;3.80;99.90;;;;;;5068705;28;20059;-73
2022/01/16 07:05:44;;;;;;;89.43;36.30;;;3.80;99.90;;;;;;5066804;28;20052;-75
2022/01/16 07:08:10;;;;;;;;;;;3.80;99.90;;;;;;5066936;28;20044;-75
2022/01/16 07:10:35;;;;;;;91.75;35.75;;;3.80;99.90;;;;;;5067915;28;20095;-73
2022/01/16 07:13:02;;;;;;;83.68;35.13;;;3.80;99.90;;;;;;5050017;28;20045;-73
2022/01/16 07:15:27;;;;;;;86.30;36.30;;;3.90;99.90;;;;;;5065182;28;20502;-73
2022/01/16 07:17:53;;;;;;;94.32;36.90;;;3.80;99.90;;;;;;5064969;28;20040;-73
2022/01/16 07:20:19;;;;;;;83.57;33.22;;;3.80;99.90;;;;;;5061903;28;20064;-73
2022/01/16 07:22:45;;;;;;;86.78;35.70;;;4.00;99.90;;;;;;5046607;28;20039;-73
2022/01/16 07:25:12;;;;;;;79.70;33.92;;;3.90;99.90;;;;;;5048445;28;20124;-76
2022/01/16 07:27:38;;;;;;;84.20;37.58;;;3.90;99.90;;;;;;5062446;28;20032;-73
2022/01/16 07:30:04;;;;;;;92.10;36.10;;;4.10;99.90;;;;;;5066042;28;20522;-77
2022/01/16 07:32:30;;;;;;;;;;;4.00;99.90;;;;;;5069711;28;20091;-73
2022/01/16 07:34:56;;;;;;;77.93;34.45;;;4.10;99.90;;;;;;5061450;28;20324;-73
2022/01/16 07:37:22;;;;;;;76.10;34.38;;;4.20;99.90;;;;;;5062089;28;20036;-73
2022/01/16 07:39:47;;;;;;;84.18;35.33;;;4.00;99.90;;;;;;5063076;28;20033;-73
2022/01/16 07:42:13;;;;;;;75.80;33.65;;;4.20;99.90;;;;;;5063727;28;20120;-73
2022/01/16 07:44:39;;;;;;;76.82;34.28;;;4.20;99.90;;;;;;5063373;28;20217;-72
2022/01/16 07:47:05;;;;;;;86.53;36.25;;;4.30;99.90;;;;;;5067699;28;20060;-73
2022/01/16 07:49:31;;;;;;;80.38;35.47;;;4.20;99.90;;;;;;5032602;28;20036;-73
2022/01/16 07:51:56;;;;;;;80.55;36.15;;;4.30;99.90;;;;;;5031552;28;20345;-73
2022/01/16 07:54:23;;;;;;;75.13;34.85;;;4.30;99.90;;;;;;5061953;28;20128;-74
2022/01/16 07:56:49;;;;;;;75.35;34.45;;;4.20;99.90;;;;;;5065624;28;20047;-73
2022/01/16 07:59:16;;;;;;;72.65;32.70;;;4.30;99.90;;;;;;5018526;28;20036;-73
2022/01/16 08:01:42;;;;;;;72.90;33.53;;;4.30;99.90;;;;;;5053740;28;20186;-73
2022/01/16 08:04:08;;;;;;;70.78;32.42;;;4.40;99.90;;;;;;5070929;28;20118;-73
2022/01/16 08:06:33;;;;;;;70.72;33.40;;;4.30;99.90;;;;;;5066068;28;20472;-73
2022/01/16 08:08:59;;;;;;;78.40;34.95;;;4.30;99.90;;;;;;5048836;28;20044;-73
2022/01/16 08:11:25;;;;;;;75.07;34.70;;;4.40;99.90;;;;;;5070183;28;20097;-73
2022/01/16 08:13:51;;;;;;;69.10;33.00;;;4.40;99.90;;;;;;5035853;28;20150;-73
2022/01/16 08:16:16;;;;;;;68.95;33.97;;;4.50;99.90;;;;;;5049797;28;20044;-73
2022/01/16 08:18:42;;;;;;;67.53;33.75;;;4.60;99.90;;;;;;5072486;28;20037;-73
2022/01/16 08:21:08;;;;;;;65.70;32.95;;;4.60;99.90;;;;;;5070229;28;20855;-73
2022/01/16 08:23:33;;;;;;;60.40;29.58;;;4.60;99.90;;;;;;5065705;28;20048;-71
2022/01/16 08:26:00;;;;;;;61.45;30.73;;;4.50;99.90;;;;;;5050762;28;20124;-73
2022/01/16 08:28:26;;;;;;;69.30;32.67;;;4.50;99.90;;;;;;5068528;28;20036;-72
2022/01/16 08:30:52;;;;;;;61.10;32.20;;;4.60;99.90;;;;;;5053188;28;20041;-73
2022/01/16 08:33:17;;;;;;;60.67;31.60;;;4.70;99.90;;;;;;5066667;28;20041;-74
2022/01/16 08:35:43;;;;;;;58.55;31.73;;;4.70;99.90;;;;;;5069295;28;20072;-74
2022/01/16 08:38:09;;;;;;;58.45;30.75;;;4.70;99.90;;;;;;5069135;28;20060;-73
2022/01/16 08:40:35;;;;;;;52.60;29.95;;;4.90;99.90;;;;;;5067372;28;20037;-73
2022/01/16 08:43:08;;;;;;;56.50;28.73;;;4.70;99.90;;;;;;5065786;28;20472;-74
2022/01/16 08:45:35;;;;;;;54.10;30.30;;;4.90;99.90;;;;;;5050330;28;20056;-72
2022/01/16 08:48:01;;;;;;;45.80;26.00;;;4.80;99.90;;;;;;5064522;28;20048;-73
2022/01/16 08:50:27;;;;;;;49.25;27.83;;;4.80;99.90;;;;;;5064766;28;20062;-72
2022/01/16 08:52:53;;;;;;;54.33;28.92;;;4.90;99.90;;;;;;5051029;28;20048;-72
2022/01/16 08:55:19;;;;;;;50.13;27.55;;;4.90;99.90;;;;;;5052261;28;20369;-71
2022/01/16 08:57:45;;;;;;;50.50;28.35;;;5.00;99.90;;;;;;5048881;28;20041;-73
2022/01/16 09:00:11;;;;;;;51.00;28.00;;;5.10;99.90;;;;;;5049160;28;20116;-72
2022/01/16 09:02:37;;;;;;;49.97;26.98;;;5.00;99.90;;;;;;5065824;28;20051;-72
2022/01/16 09:05:05;;;;;;;47.90;27.67;;;5.20;99.90;;;;;;5065383;28;20040;-75
2022/01/16 09:07:31;;;;;;;44.45;24.35;;;5.20;99.90;;;;;;5051239;28;20085;-75
2022/01/16 09:09:59;;;;;;;45.03;26.02;;;5.30;99.90;;;;;;5065011;28;20056;-75
2022/01/16 09:12:25;;;;;;;40.97;26.25;;;5.30;99.90;;;;;;5069069;28;20080;-74
2022/01/16 09:14:51;;;;;;;40.60;24.85;;;5.30;99.90;;;;;;5066073;28;20037;-73
2022/01/16 09:17:17;;;;;;;41.78;25.65;;;5.40;99.90;;;;;;5044571;28;20135;-72
2022/01/16 09:19:43;;;;;;;40.53;24.50;;;5.40;99.90;;;;;;5042585;28;20119;-73
2022/01/16 09:22:09;;;;;;;42.47;25.05;;;5.60;99.90;;;;;;5068278;28;20152;-73
2022/01/16 09:24:34;;;;;;;40.60;25.05;;;5.50;99.90;;;;;;5061614;28;20048;-73
2022/01/16 09:27:01;;;;;;;37.78;24.42;;;5.60;99.90;;;;;;5046315;28;20044;-73
2022/01/16 09:29:27;;;;;;;;;;;5.60;99.90;;;;;;5071857;28;20052;-73
2022/01/16 09:31:55;;;;;;;42.38;24.38;;;5.70;99.90;;;;;;5066938;28;19917;-73
2022/01/16 09:34:21;;;;;;;38.33;23.05;;;5.80;99.90;;;;;;5044768;28;20185;-73
2022/01/16 09:36:48;;;;;;;42.50;23.40;;;5.80;99.90;;;;;;5050916;28;20448;-73
2022/01/16 09:39:14;;;;;;;36.03;21.95;;;5.80;99.90;;;;;;5068490;28;20079;-75
2022/01/16 09:41:42;;;;;;;33.47;20.95;;;5.90;99.90;;;;;;5068347;28;20120;-80
2022/01/16 09:44:08;;;;;;;33.40;21.55;;;5.90;99.90;;;;;;5056996;28;20047;-80
2022/01/16 09:46:35;;;;;;;35.92;22.80;;;5.90;99.90;;;;;;5053796;28;20044;-72
2022/01/16 09:49:02;;;;;;;34.83;22.45;;;5.90;99.90;;;;;;5078561;28;20043;-73
2022/01/16 09:51:29;;;;;;;36.47;21.92;;;5.90;99.90;;;;;;5046772;28;20044;-73
2022/01/16 09:53:55;;;;;;;34.45;21.73;;;5.90;99.90;;;;;;5067538;28;20072;-73
2022/01/16 09:56:22;;;;;;;35.63;22.60;;;6.00;99.90;;;;;;5067817;28;20381;-73
2022/01/16 09:58:48;;;;;;;36.30;20.15;;;6.00;99.90;;;;;;5052162;28;20101;-73
2022/01/16 10:01:14;;;;;;;35.90;22.30;;;6.00;99.90;;;;;;5063835;28;20053;-72
2022/01/16 10:03:46;;;;;;;37.40;21.63;;;6.10;99.90;;;;;;5035004;28;20059;-72
2022/01/16 10:06:15;;;;;;;33.08;20.42;;;6.20;99.90;;;;;;5062519;28;20051;-72
2022/01/16 10:08:43;;;;;;;32.85;20.17;;;6.20;99.90;;;;;;5068907;28;20114;-73
2022/01/16 10:11:36;;;;;;;37.78;22.23;;;6.30;99.90;;;;;;5034858;28;20040;-72
2022/01/16 10:14:13;;;;;;;35.33;19.63;;;6.30;99.90;;;;;;5050425;28;20452;-72
2022/01/16 10:16:41;;;;;;;32.70;19.10;;;6.30;99.90;;;;;;5069784;28;20048;-72
2022/01/16 10:19:25;;;;;;;37.30;21.35;;;6.40;99.90;;;;;;5046134;28;20037;-72
2022/01/16 10:21:52;;;;;;;31.27;19.40;;;6.50;99.90;;;;;;5064327;28;20392;-72
2022/01/16 10:24:20;;;;;;;28.40;19.33;;;6.40;99.90;;;;;;5046615;28;20036;-72
2022/01/16 10:26:47;;;;;;;32.40;19.73;;;6.50;99.90;;;;;;5058519;28;20041;-72
2022/01/16 10:29:18;;;;;;;31.83;19.48;;;6.50;99.90;;;;;;5076311;28;20045;-72
2022/01/16 10:31:45;;;;;;;30.40;18.90;;;6.60;99.90;;;;;;5067356;28;20120;-72
2022/01/16 10:34:27;;;;;;;35.17;20.13;;;6.60;99.90;;;;;;5060815;28;20040;-72
2022/01/16 10:36:53;;;;;;;30.60;18.95;;;6.60;99.90;;;;;;5051726;28;20041;-73
2022/01/16 10:39:19;;;;;;;32.13;18.38;;;6.60;99.90;;;;;;5062111;28;20056;-72
2022/01/16 10:41:45;;;;;;;32.30;18.13;;;6.60;99.90;;;;;;5065326;28;20032;-73
2022/01/16 10:44:26;;;;;;;31.02;17.50;;;6.60;99.90;;;;;;5032607;28;20051;-73
2022/01/16 10:46:51;;;;;;;32.72;18.13;;;6.60;99.90;;;;;;5063927;28;20052;-73
2022/01/16 10:49:19;;;;;;;29.05;17.75;;;6.70;99.90;;;;;;5065151;28;20479;-73
2022/01/16 10:52:05;;;;;;;32.90;17.58;;;6.70;99.90;;;;;;5065915;28;20092;-72
2022/01/16 10:54:37;;;;;;;29.05;16.92;;;6.70;99.90;;;;;;5031394;28;20050;-72
2022/01/16 10:57:18;;;;;;;29.08;16.63;;;6.80;99.90;;;;;;5091835;28;20205;-74
2022/01/16 10:59:45;;;;;;;26.67;16.38;;;6.80;99.90;;;;;;5062771;28;20068;-74
2022/01/16 11:02:11;;;;;;;30.25;16.42;;;6.80;99.90;;;;;;5059829;28;20102;-74
2022/01/16 11:04:37;;;;;;;23.75;14.90;;;6.80;99.90;;;;;;5027622;28;20598;-74
2022/01/16 11:07:05;;;;;;;23.27;14.48;;;6.80;99.90;;;;;;5047166;28;20044;-74
2022/01/16 11:09:31;;;;;;;23.42;14.95;;;6.80;99.90;;;;;;5063170;28;20047;-76
2022/01/16 11:12:01;;;;;;;31.38;15.18;;;6.90;99.90;;;;;;5066988;28;20831;-74
2022/01/16 11:14:29;;;;;;;27.90;15.93;;;6.80;99.90;;;;;;5066517;28;20036;-74
2022/01/16 11:16:57;;;;;;;26.98;15.73;;;6.80;99.90;;;;;;5067426;28;20040;-74
2022/01/16 11:19:24;;;;;;;29.50;15.35;;;6.80;99.90;;;;;;5067747;28;20087;-73
2022/01/16 11:21:54;;;;;;;23.17;13.45;;;6.80;99.90;;;;;;5046203;28;20041;-74
2022/01/16 11:24:33;;;;;;;28.63;14.75;;;6.80;99.90;;;;;;5066888;28;20102;-74
2022/01/16 11:27:00;;;;;;;26.15;13.90;;;6.80;99.90;;;;;;5064114;28;20135;-73
2022/01/16 11:29:28;;;;;;;20.20;12.95;;;6.80;99.90;;;;;;5024358;28;20052;-74
2022/01/16 11:31:56;;;;;;;23.30;13.75;;;6.80;99.90;;;;;;5056534;28;20041;-74
2022/01/16 11:34:26;;;;;;;28.25;13.65;;;6.90;99.90;;;;;;5076362;28;20056;-74
2022/01/16 11:36:54;;;;;;;23.30;13.52;;;6.90;99.90;;;;;;5063778;28;20068;-74
2022/01/16 11:39:20;;;;;;;27.88;13.18;;;6.90;99.90;;;;;;5092923;28;20041;-73
2022/01/16 11:41:50;;;;;;;19.88;12.00;;;6.90;99.90;;;;;;5035574;28;20065;-74
2022/01/16 11:44:24;;;;;;;26.50;13.05;;;6.90;99.90;;;;;;5045862;28;20044;-73
2022/01/16 11:46:53;;;;;;;21.63;12.32;;;7.00;99.90;;;;;;5070601;28;20056;-73
2022/01/16 11:49:43;;;;;;;25.38;12.63;;;6.90;99.90;;;;;;5065361;28;20044;-79
2022/01/16 11:52:15;;;;;;;19.00;11.32;;;7.00;99.90;;;;;;5065940;28;20076;-78
2022/01/16 11:54:51;;;;;;;25.25;11.27;;;7.00;99.90;;;;;;5049930;28;20041;-78
2022/01/16 11:57:22;;;;;;;25.45;10.85;;;7.10;99.90;;;;;;5071741;28;20059;-78
2022/01/16 11:59:52;;;;;;;15.45;10.57;;;7.00;99.90;;;;;;5047324;28;20071;-78
2022/01/16 12:02:23;;;;;;;22.23;10.13;;;7.10;99.90;;;;;;5073514;28;20033;-81
2022/01/16 12:04:51;;;;;;;15.18;9.02;;;7.10;99.90;;;;;;5052664;28;20047;-80
2022/01/16 12:07:20;;;;;;;18.60;9.18;;;7.10;99.90;;;;;;5058353;28;20033;-80
2022/01/16 12:09:59;;;;;;;18.67;9.38;;;7.10;99.90;;;;;;5069143;28;20159;-79
2022/01/16 12:12:26;;;;;;;16.00;8.23;;;7.10;99.90;;;;;;5057583;28;20444;-80
2022/01/16 12:14:55;;;;;;;16.77;8.65;;;7.20;99.90;;;;;;5068817;28;20098;-81
2022/01/16 12:17:30;;;;;;;22.73;8.88;;;7.20;99.90;;;;;;5072726;28;20119;-83
2022/01/16 12:20:17;;;;;;;17.35;8.05;;;7.20;99.90;;;;;;5069606;28;20099;-80
2022/01/16 12:22:53;;;;;;;14.23;7.60;;;7.20;99.90;;;;;;5071571;28;20107;-78
2022/01/16 12:25:22;;;;;;;18.50;8.02;;;7.20;99.90;;;;;;5070424;28;20074;-78
2022/01/16 12:27:49;;;;;;;15.82;7.20;;;7.20;99.90;;;;;;5066458;28;20040;-80
2022/01/16 12:30:26;;;;;;;15.02;6.50;;;7.20;99.90;;;;;;5069363;28;20484;-78
2022/01/16 12:33:00;;;;;;;18.70;7.50;;;7.20;99.90;;;;;;5069448;28;20432;-77
2022/01/16 12:35:46;;;;;;;14.30;7.00;;;7.20;99.90;;;;;;5046502;28;20072;-78
2022/01/16 12:38:14;;;;;;;16.40;7.13;;;7.20;99.90;;;;;;5063268;28;20301;-78
2022/01/16 12:40:44;;;;;;;17.98;7.10;;;7.20;99.90;;;;;;5059858;28;20044;-77
2022/01/16 12:43:26;;;;;;;14.27;6.93;;;7.20;99.90;;;;;;5064968;28;20036;-78
2022/01/16 12:45:52;;;;;;;14.30;6.82;;;7.20;99.90;;;;;;5067274;28;20057;-78
2022/01/16 12:48:18;;;;;;;16.25;7.22;;;7.20;99.90;;;;;;5045343;28;20084;-77
2022/01/16 12:50:44;;;;;;;15.32;6.53;;;7.20;99.90;;;;;;5047643;28;20076;-76
2022/01/16 12:53:10;;;;;;;14.88;6.28;;;7.30;99.90;;;;;;5049516;28;20479;-77
2022/01/16 12:55:35;;;;;;;15.80;6.45;;;7.30;99.90;;;;;;5055563;28;20052;-77
2022/01/16 12:58:18;;;;;;;13.35;6.20;;;7.30;99.90;;;;;;5067381;28;20037;-81
2022/01/16 13:01:03;;;;;;;16.20;6.43;;;7.20;99.90;;;;;;5102221;28;20040;-78
2022/01/16 13:03:30;;;;;;;16.25;6.55;;;7.30;99.90;;;;;;5072402;28;20099;-78
2022/01/16 13:06:27;;;;;;;13.55;5.60;;;7.20;99.90;;;;;;5054082;28;20083;-78
2022/01/16 13:09:12;;;;;;;13.85;6.38;;;7.20;99.90;;;;;;5071430;28;20102;-78
2022/01/16 13:11:39;;;;;;;13.02;6.25;;;7.20;99.90;;;;;;5071188;28;20049;-78
2022/01/16 13:14:07;;;;;;;12.25;5.95;;;7.20;99.90;;;;;;5067983;28;20040;-78
2022/01/16 13:16:41;;;;;;;15.95;7.03;;;7.20;99.90;;;;;;5070430;28;20040;-78
2022/01/16 13:19:12;;;;;;;18.02;6.72;;;7.20;99.90;;;;;;5089996;28;20032;-77